createdAt,value
2023-01-13T00:01:48.244Z,9.10
2023-01-13T00:04:15.495Z,9.20
2023-01-13T00:06:42.832Z,9.20
2023-01-13T00:09:09.821Z,9.20
2023-01-13T00:11:37.424Z,9.30
2023-01-13T00:14:05.944Z,9.30
2023-01-13T00:16:33.311Z,9.30
2023-01-13T00:19:00.729Z,9.30
2023-01-13T00:21:28.798Z,9.30
2023-01-13T00:23:56.807Z,9.50
2023-01-13T00:26:33.916Z,9.50
2023-01-13T00:29:02.393Z,9.40
2023-01-13T00:31:32.792Z,9.30
2023-01-13T00:34:03.008Z,9.30
2023-01-13T00:36:34.821Z,9.30
2023-01-13T00:39:05.217Z,9.40
2023-01-13T00:41:52.585Z,9.40
2023-01-13T00:44:20.126Z,9.40
2023-01-13T00:46:48.752Z,9.50
2023-01-13T00:49:15.706Z,9.40
2023-01-13T00:51:42.617Z,9.30
2023-01-13T00:54:10.605Z,9.20
2023-01-13T00:56:41.487Z,9.30
2023-01-13T00:59:12.105Z,9.30
2023-01-13T01:01:39.596Z,9.30
2023-01-13T01:04:07.331Z,9.50
2023-01-13T01:06:34.793Z,9.20
2023-01-13T01:09:02.098Z,9.20
2023-01-13T01:11:32.338Z,9.30
2023-01-13T01:14:02.283Z,9.20
2023-01-13T01:16:34.498Z,9.20
2023-01-13T01:19:02.491Z,9.20
2023-01-13T01:21:30.002Z,9.20
2023-01-13T01:24:01.371Z,9.30
2023-01-13T01:26:30.535Z,9.20
2023-01-13T01:28:58.060Z,9.20
2023-01-13T01:31:34.675Z,9.20
2023-01-13T01:34:05.589Z,9.40
2023-01-13T01:36:35.247Z,9.40
2023-01-13T01:39:05.265Z,9.30
2023-01-13T01:41:34.845Z,9.50
2023-01-13T01:44:10.736Z,9.30
2023-01-13T01:46:48.391Z,9.20
2023-01-13T01:49:20.707Z,9.20
2023-01-13T01:51:58.088Z,9.20
2023-01-13T01:54:39.419Z,9.20
2023-01-13T01:57:11.377Z,9.30
2023-01-13T01:59:40.083Z,9.30
2023-01-13T02:02:11.676Z,9.30
2023-01-13T02:04:43.018Z,9.20
2023-01-13T02:07:41.606Z,9.20
2023-01-13T02:10:13.146Z,9.20
2023-01-13T02:12:46.267Z,9.20
2023-01-13T02:15:40.019Z,9.20
2023-01-13T02:18:25.601Z,9.30
2023-01-13T02:21:29.817Z,9.30
2023-01-13T02:24:59.950Z,9.30
2023-01-13T02:28:00.414Z,9.40
2023-01-13T02:31:00.263Z,9.40
2023-01-13T02:33:38.864Z,9.40
2023-01-13T02:36:26.284Z,9.40
2023-01-13T02:39:27.493Z,9.40
2023-01-13T02:42:28.517Z,9.50
2023-01-13T02:45:12.150Z,9.40
2023-01-13T02:47:43.797Z,9.50
2023-01-13T02:50:17.625Z,9.50
2023-01-13T02:52:52.673Z,9.50
2023-01-13T02:55:27.003Z,9.50
2023-01-13T02:57:56.101Z,9.40
2023-01-13T03:00:26.362Z,9.30
2023-01-13T03:02:53.395Z,9.40
2023-01-13T03:05:22.883Z,9.40
2023-01-13T03:08:09.252Z,9.40
2023-01-13T03:10:55.050Z,9.60
2023-01-13T03:13:53.982Z,9.60
2023-01-13T03:16:31.344Z,9.50
2023-01-13T03:19:21.376Z,9.40
2023-01-13T03:21:55.573Z,9.30
2023-01-13T03:24:34.963Z,9.30
2023-01-13T03:27:21.594Z,9.30
2023-01-13T03:30:13.920Z,9.10
2023-01-13T03:32:48.795Z,9.10
2023-01-13T03:35:26.550Z,9.00
2023-01-13T03:38:24.213Z,9.10
2023-01-13T03:41:02.525Z,9.10
2023-01-13T03:44:09.406Z,9.00
2023-01-13T03:46:53.444Z,9.10
2023-01-13T03:49:24.618Z,9.20
2023-01-13T03:51:57.376Z,9.10
2023-01-13T03:54:29.216Z,9.10
2023-01-13T03:57:05.462Z,9.30
2023-01-13T03:59:41.790Z,9.20
2023-01-13T04:02:17.557Z,9.20
2023-01-13T04:04:52.519Z,9.20
2023-01-13T04:07:53.422Z,9.30
2023-01-13T04:10:35.628Z,9.30
2023-01-13T04:13:07.684Z,9.30
2023-01-13T04:15:46.111Z,9.10
2023-01-13T04:18:19.728Z,9.20
2023-01-13T04:20:49.949Z,9.20
2023-01-13T04:23:18.272Z,9.10
2023-01-13T04:25:47.948Z,9.10
2023-01-13T04:28:16.399Z,9.10
2023-01-13T04:30:46.454Z,9.30
2023-01-13T04:33:15.475Z,9.20
2023-01-13T04:35:46.397Z,9.10
2023-01-13T04:38:20.281Z,9.20
2023-01-13T04:40:48.394Z,9.20
2023-01-13T04:43:18.700Z,9.20
2023-01-13T04:45:46.395Z,9.20
2023-01-13T04:48:13.849Z,9.30
2023-01-13T04:50:41.284Z,9.40
2023-01-13T04:53:08.236Z,9.30
2023-01-13T04:55:38.524Z,9.30
2023-01-13T04:58:07.863Z,9.30
2023-01-13T05:00:38.868Z,9.40
2023-01-13T05:03:20.630Z,9.30
2023-01-13T05:05:52.888Z,9.30
2023-01-13T05:08:20.304Z,9.30
2023-01-13T05:10:48.202Z,9.30
2023-01-13T05:13:34.155Z,9.30
2023-01-13T05:16:20.738Z,9.30
2023-01-13T05:18:50.281Z,9.40
2023-01-13T05:21:44.528Z,9.40
2023-01-13T05:24:37.076Z,9.40
2023-01-13T05:27:17.676Z,9.40
2023-01-13T05:29:49.717Z,9.30
2023-01-13T05:32:19.097Z,9.40
2023-01-13T05:34:56.761Z,9.50
2023-01-13T05:37:26.987Z,9.50
2023-01-13T05:43:32.894Z,9.40
2023-01-13T05:46:13.882Z,9.40
2023-01-13T05:48:44.242Z,9.40
2023-01-13T05:51:26.027Z,9.30
2023-01-13T05:56:59.822Z,9.50
2023-01-13T05:59:27.776Z,9.40
2023-01-13T06:01:55.142Z,9.50
2023-01-13T06:04:22.518Z,9.60
2023-01-13T06:06:49.461Z,9.50
2023-01-13T06:09:16.844Z,9.60
2023-01-13T06:11:44.463Z,9.50
2023-01-13T06:14:12.170Z,9.50
2023-01-13T06:16:39.661Z,9.40
2023-01-13T06:19:13.539Z,9.40
2023-01-13T06:21:45.772Z,9.30
2023-01-13T06:24:16.189Z,9.40
2023-01-13T06:26:46.101Z,9.30
2023-01-13T06:29:15.315Z,9.30
2023-01-13T06:31:45.957Z,9.40
2023-01-13T06:34:15.076Z,9.50
2023-01-13T06:36:51.118Z,9.50
2023-01-13T06:39:22.495Z,9.50
2023-01-13T06:42:12.948Z,9.50
2023-01-13T06:44:40.585Z,9.50
2023-01-13T06:49:51.762Z,9.50
2023-01-13T06:52:21.097Z,9.70
2023-01-13T06:54:48.054Z,9.60
2023-01-13T06:57:16.457Z,9.50
2023-01-13T06:59:43.481Z,9.50
2023-01-13T07:02:14.588Z,9.60
2023-01-13T07:04:42.623Z,9.60
2023-01-13T07:07:11.391Z,9.60
2023-01-13T07:09:38.740Z,9.70
2023-01-13T07:12:06.373Z,9.70
2023-01-13T07:14:53.470Z,9.70
2023-01-13T07:17:26.124Z,9.70
2023-01-13T07:19:58.042Z,9.80
2023-01-13T07:22:25.405Z,9.80
2023-01-13T07:24:54.289Z,9.80
2023-01-13T07:27:24.200Z,9.80
2023-01-13T07:29:51.923Z,9.70
2023-01-13T07:32:19.127Z,9.90
2023-01-13T07:34:48.731Z,9.80
2023-01-13T07:37:15.669Z,9.70
2023-01-13T07:39:45.469Z,9.80
2023-01-13T07:42:36.646Z,9.80
2023-01-13T07:45:08.695Z,9.80
2023-01-13T07:47:36.768Z,9.80
2023-01-13T07:50:04.499Z,9.80
2023-01-13T07:52:31.355Z,9.80
2023-01-13T07:54:59.088Z,9.90
2023-01-13T07:57:27.015Z,9.90
2023-01-13T07:59:54.252Z,10.00
2023-01-13T08:02:21.749Z,10.10
2023-01-13T08:04:48.960Z,10.00
2023-01-13T08:07:16.255Z,10.00
2023-01-13T08:09:43.586Z,10.00
2023-01-13T08:12:29.148Z,10.10
2023-01-13T08:14:56.095Z,10.00
2023-01-13T08:17:22.988Z,10.00
2023-01-13T08:19:50.173Z,10.10
2023-01-13T08:22:17.613Z,10.20
2023-01-13T08:24:44.985Z,10.30
2023-01-13T08:27:11.797Z,10.30
2023-01-13T08:29:39.304Z,10.40
2023-01-13T08:32:06.631Z,10.40
2023-01-13T08:34:33.631Z,10.40
2023-01-13T08:37:00.538Z,10.50
2023-01-13T08:39:27.384Z,10.50
2023-01-13T08:41:57.462Z,10.50
2023-01-13T08:44:26.608Z,10.40
2023-01-13T08:46:54.275Z,10.40
2023-01-13T08:49:22.232Z,10.30
2023-01-13T08:51:50.322Z,10.60
2023-01-13T08:54:18.215Z,10.50
2023-01-13T08:56:46.050Z,10.30
2023-01-13T08:59:18.128Z,10.40
2023-01-13T09:01:45.533Z,10.40
2023-01-13T09:04:19.626Z,10.50
2023-01-13T09:06:47.380Z,10.40
2023-01-13T09:09:14.810Z,10.50
2023-01-13T09:12:06.849Z,10.40
2023-01-13T09:14:35.768Z,10.50
2023-01-13T09:17:03.338Z,10.40
2023-01-13T09:19:30.717Z,10.30
2023-01-13T09:21:57.933Z,10.40
2023-01-13T09:24:26.050Z,10.30
2023-01-13T09:26:56.218Z,10.40
2023-01-13T09:29:23.160Z,10.40
2023-01-13T09:31:52.099Z,10.50
2023-01-13T09:34:39.687Z,10.40
2023-01-13T09:37:08.275Z,10.50
2023-01-13T09:39:36.902Z,10.60
2023-01-13T09:42:29.723Z,10.60
2023-01-13T09:45:21.196Z,10.80
2023-01-13T09:48:00.519Z,10.70
2023-01-13T09:50:34.472Z,10.70
2023-01-13T09:53:02.051Z,10.60
2023-01-13T09:55:38.125Z,10.70
2023-01-13T09:58:15.071Z,10.70
2023-01-13T10:01:12.225Z,10.80
2023-01-13T10:06:39.588Z,10.90
2023-01-13T10:09:07.177Z,10.90
2023-01-13T10:11:59.387Z,11.00
2023-01-13T10:14:52.892Z,11.00
2023-01-13T10:17:37.086Z,11.10
2023-01-13T10:20:27.132Z,11.20
2023-01-13T10:23:08.814Z,11.30
2023-01-13T10:26:12.319Z,11.50
2023-01-13T10:28:39.797Z,11.70
2023-01-13T10:31:15.182Z,11.90
2023-01-13T10:33:42.059Z,12.20
2023-01-13T10:36:23.657Z,12.20
2023-01-13T10:38:51.760Z,12.30
2023-01-13T10:41:25.902Z,12.40
2023-01-13T10:43:52.933Z,12.30
2023-01-13T10:46:21.228Z,12.20
2023-01-13T10:49:18.639Z,12.30
2023-01-13T10:51:49.889Z,12.30
2023-01-13T10:54:25.691Z,12.50
2023-01-13T10:57:22.029Z,12.80
2023-01-13T10:59:51.510Z,12.90
2023-01-13T11:02:26.817Z,12.70
2023-01-13T11:04:54.427Z,12.60
2023-01-13T11:07:34.052Z,12.50
2023-01-13T11:10:20.036Z,12.50
2023-01-13T11:13:15.688Z,12.60
2023-01-13T11:16:14.725Z,12.70
2023-01-13T11:19:08.462Z,12.50
2023-01-13T11:22:19.470Z,12.40
2023-01-13T11:24:55.952Z,12.20
2023-01-13T11:27:55.404Z,12.20
2023-01-13T11:30:43.118Z,12.10
2023-01-13T11:33:17.102Z,12.10
2023-01-13T11:36:05.215Z,12.20
2023-01-13T11:38:50.898Z,12.10
2023-01-13T11:41:28.779Z,12.00
2023-01-13T11:44:10.889Z,12.10
2023-01-13T11:46:38.643Z,12.10
2023-01-13T11:51:56.061Z,12.00
2023-01-13T11:54:39.174Z,12.10
2023-01-13T11:57:15.620Z,12.10
2023-01-13T12:00:01.084Z,12.20
2023-01-13T12:02:48.574Z,12.20
2023-01-13T12:05:19.732Z,12.20
2023-01-13T12:08:01.744Z,12.20
2023-01-13T12:11:05.607Z,12.30
2023-01-13T12:14:42.513Z,12.50
2023-01-13T12:17:28.387Z,12.50
2023-01-13T12:19:55.687Z,12.40
2023-01-13T12:22:35.362Z,12.20
2023-01-13T12:25:23.540Z,12.20
2023-01-13T12:28:09.421Z,12.30
2023-01-13T12:30:51.819Z,12.40
2023-01-13T12:33:47.211Z,12.40
2023-01-13T12:36:38.340Z,12.30
2023-01-13T12:39:29.475Z,12.50
2023-01-13T12:42:38.062Z,12.50
2023-01-13T12:45:06.170Z,12.70
2023-01-13T12:47:40.468Z,12.80
2023-01-13T12:50:29.196Z,12.70
2023-01-13T12:53:21.801Z,12.70
2023-01-13T12:55:56.022Z,12.60
2023-01-13T12:58:30.288Z,12.30
2023-01-13T13:01:10.228Z,12.20
2023-01-13T13:03:39.135Z,12.30
2023-01-13T13:06:42.944Z,12.30
2023-01-13T13:09:46.160Z,12.50
2023-01-13T13:12:50.423Z,12.40
2023-01-13T13:15:35.913Z,12.50
2023-01-13T13:18:28.672Z,12.40
2023-01-13T13:21:12.257Z,12.30
2023-01-13T13:24:02.530Z,12.30
2023-01-13T13:26:36.538Z,12.10
2023-01-13T13:29:22.434Z,12.00
2023-01-13T13:32:33.592Z,12.00
2023-01-13T13:35:42.497Z,12.00
2023-01-13T13:39:11.030Z,12.10
2023-01-13T13:42:03.977Z,12.10
2023-01-13T13:45:01.880Z,12.10
2023-01-13T13:47:42.323Z,12.00
2023-01-13T13:50:17.121Z,11.90
2023-01-13T13:52:54.562Z,11.70
2023-01-13T13:55:26.157Z,11.70
2023-01-13T13:57:57.646Z,11.80
2023-01-13T14:00:27.453Z,11.70
2023-01-13T14:03:02.413Z,11.70
2023-01-13T14:05:42.104Z,11.60
2023-01-13T14:08:27.529Z,11.80
2023-01-13T14:11:04.867Z,11.90
2023-01-13T14:16:26.006Z,11.80
2023-01-13T14:19:29.582Z,11.70
2023-01-13T14:22:28.036Z,11.70
2023-01-13T14:25:06.539Z,11.80
2023-01-13T14:27:43.869Z,11.90
2023-01-13T14:30:20.088Z,11.90
2023-01-13T14:32:50.005Z,12.20
2023-01-13T14:38:07.163Z,11.90
2023-01-13T14:40:38.109Z,11.30
2023-01-13T14:43:19.219Z,10.80
2023-01-13T14:46:00.544Z,10.40
2023-01-13T14:48:35.639Z,10.10
2023-01-13T14:51:07.402Z,9.90
2023-01-13T14:53:47.253Z,9.70
2023-01-13T14:56:37.094Z,9.60
2023-01-13T14:59:55.730Z,9.50
2023-01-13T15:02:34.692Z,9.50
2023-01-13T15:05:23.580Z,9.60
2023-01-13T15:07:55.265Z,9.60
2023-01-13T15:11:02.636Z,9.70
2023-01-13T15:13:48.436Z,9.70
2023-01-13T15:16:35.082Z,9.80
2023-01-13T15:19:03.883Z,9.70
2023-01-13T15:21:30.861Z,9.60
2023-01-13T15:24:00.015Z,9.60
2023-01-13T15:26:32.101Z,9.60
2023-01-13T15:29:01.588Z,9.60
2023-01-13T15:31:31.556Z,9.70
2023-01-13T15:34:02.902Z,9.80
2023-01-13T15:36:32.765Z,9.70
2023-01-13T15:39:02.135Z,9.80
2023-01-13T15:45:00.308Z,9.80
2023-01-13T15:47:32.785Z,9.70
2023-01-13T15:50:00.272Z,9.60
2023-01-13T15:52:28.998Z,9.80
2023-01-13T15:55:01.205Z,9.80
2023-01-13T15:57:34.403Z,9.80
2023-01-13T16:00:13.673Z,9.70
2023-01-13T16:02:42.013Z,9.70
2023-01-13T16:05:13.092Z,9.80
2023-01-13T16:07:42.293Z,9.70
2023-01-13T16:10:33.464Z,10.00
2023-01-13T16:13:01.707Z,9.90
2023-01-13T16:15:34.760Z,9.60
2023-01-13T16:18:07.173Z,9.60
2023-01-13T16:20:35.519Z,9.60
2023-01-13T16:23:04.992Z,9.80
2023-01-13T16:25:34.055Z,9.80
2023-01-13T16:28:02.883Z,9.80
2023-01-13T16:30:35.912Z,9.70
2023-01-13T16:33:07.046Z,9.50
2023-01-13T16:35:35.863Z,9.20
2023-01-13T16:38:25.075Z,9.40
2023-01-13T16:41:03.082Z,9.20
2023-01-13T16:43:40.473Z,9.30
2023-01-13T16:46:31.444Z,9.30
2023-01-13T16:49:06.494Z,9.30
2023-01-13T16:51:48.002Z,9.20
2023-01-13T16:54:21.386Z,9.40
2023-01-13T16:56:56.828Z,9.20
2023-01-13T16:59:32.732Z,9.10
2023-01-13T17:02:02.652Z,9.20
2023-01-13T17:04:30.488Z,9.10
2023-01-13T17:07:04.909Z,9.10
2023-01-13T17:09:33.836Z,9.00
2023-01-13T17:12:02.250Z,9.10
2023-01-13T17:14:29.410Z,9.10
2023-01-13T17:16:59.799Z,8.80
2023-01-13T17:19:26.955Z,8.80
2023-01-13T17:21:54.281Z,9.10
2023-01-13T17:24:21.921Z,8.90
2023-01-13T17:26:52.146Z,8.70
2023-01-13T17:29:24.275Z,8.90
2023-01-13T17:31:52.192Z,9.00
2023-01-13T17:34:20.319Z,9.10
2023-01-13T17:36:48.510Z,9.00
2023-01-13T17:39:17.209Z,8.90
2023-01-13T17:41:45.053Z,8.90
2023-01-13T17:44:17.107Z,9.00
2023-01-13T17:46:47.476Z,9.00
2023-01-13T17:49:16.405Z,9.00
2023-01-13T17:51:45.316Z,9.00
2023-01-13T17:54:12.538Z,8.90
2023-01-13T17:56:41.498Z,8.90
2023-01-13T17:59:19.741Z,8.90
2023-01-13T18:01:48.096Z,8.90
2023-01-13T18:04:17.856Z,8.90
2023-01-13T18:06:47.307Z,8.90
2023-01-13T18:09:18.181Z,8.80
2023-01-13T18:11:49.667Z,8.90
2023-01-13T18:14:23.742Z,8.90
2023-01-13T18:17:08.149Z,8.70
2023-01-13T18:19:54.008Z,8.60
2023-01-13T18:22:40.233Z,8.60
2023-01-13T18:25:44.490Z,8.50
2023-01-13T18:28:17.274Z,8.60
2023-01-13T18:30:51.568Z,8.50
2023-01-13T18:33:19.236Z,8.60
2023-01-13T18:35:51.145Z,8.60
2023-01-13T18:38:22.637Z,8.60
2023-01-13T18:40:50.855Z,8.50
2023-01-13T18:43:23.979Z,8.60
2023-01-13T18:45:58.155Z,8.40
2023-01-13T18:48:27.951Z,8.30
2023-01-13T18:50:56.285Z,8.20
2023-01-13T18:53:25.300Z,8.10
2023-01-13T18:55:59.791Z,7.80
2023-01-13T18:58:33.518Z,7.90
2023-01-13T19:01:03.119Z,8.20
2023-01-13T19:03:30.758Z,8.20
2023-01-13T19:06:08.006Z,8.20
2023-01-13T19:08:38.473Z,8.20
2023-01-13T19:11:07.543Z,8.10
2023-01-13T19:13:40.666Z,7.80
2023-01-13T19:16:14.213Z,7.50
2023-01-13T19:18:46.630Z,7.60
2023-01-13T19:21:19.143Z,7.60
2023-01-13T19:23:47.244Z,7.60
2023-01-13T19:26:23.392Z,7.90
2023-01-13T19:28:52.673Z,8.10
2023-01-13T19:31:21.661Z,8.00
2023-01-13T19:33:50.769Z,8.10
2023-01-13T19:36:17.963Z,7.90
2023-01-13T19:38:46.523Z,7.70
2023-01-13T19:41:33.823Z,7.70
2023-01-13T19:44:24.588Z,7.70
2023-01-13T19:46:54.741Z,7.70
2023-01-13T19:49:23.448Z,7.60
2023-01-13T19:51:51.887Z,7.60
2023-01-13T19:54:22.254Z,7.60
2023-01-13T19:56:49.657Z,7.70
2023-01-13T19:59:22.328Z,7.40
2023-01-13T20:01:50.078Z,7.50
2023-01-13T20:04:19.899Z,7.40
2023-01-13T20:06:50.618Z,7.30
2023-01-13T20:09:17.939Z,7.20
2023-01-13T20:11:48.869Z,7.10
2023-01-13T20:14:16.751Z,7.20
2023-01-13T20:16:51.401Z,7.00
2023-01-13T20:19:21.298Z,7.10
2023-01-13T20:21:52.618Z,6.90
2023-01-13T20:24:20.134Z,6.90
2023-01-13T20:26:51.019Z,6.90
2023-01-13T20:29:21.657Z,6.90
2023-01-13T20:31:52.354Z,7.00
2023-01-13T20:34:21.136Z,6.90
2023-01-13T20:36:50.587Z,6.80
2023-01-13T20:39:27.251Z,6.70
2023-01-13T20:42:17.085Z,6.60
2023-01-13T20:44:46.745Z,6.50
2023-01-13T20:47:15.443Z,6.30
2023-01-13T20:49:44.812Z,6.30
2023-01-13T20:52:17.287Z,6.40
2023-01-13T20:54:44.625Z,6.30
2023-01-13T20:59:47.459Z,6.10
2023-01-13T21:02:18.138Z,6.20
2023-01-13T21:04:51.506Z,6.10
2023-01-13T21:07:19.539Z,6.10
2023-01-13T21:09:47.339Z,6.30
2023-01-13T21:12:35.940Z,6.10
2023-01-13T21:15:18.629Z,6.10
2023-01-13T21:18:06.899Z,6.10
2023-01-13T21:20:35.375Z,6.10
2023-01-13T21:23:04.343Z,6.00
2023-01-13T21:25:35.521Z,6.20
2023-01-13T21:28:20.146Z,5.90
2023-01-13T21:30:48.516Z,6.00
2023-01-13T21:33:17.709Z,5.90
2023-01-13T21:35:46.944Z,6.00
2023-01-13T21:38:14.113Z,6.00
2023-01-13T21:40:42.409Z,6.00
2023-01-13T21:43:35.839Z,6.20
2023-01-13T21:49:06.360Z,6.00
2023-01-13T21:51:35.416Z,5.70
2023-01-13T21:54:04.611Z,5.50
2023-01-13T21:56:32.114Z,5.70
2023-01-13T21:58:59.866Z,5.80
2023-01-13T22:01:31.420Z,5.50
2023-01-13T22:04:22.942Z,6.00
2023-01-13T22:06:50.099Z,5.60
2023-01-13T22:09:19.168Z,5.60
2023-01-13T22:11:48.342Z,5.70
2023-01-13T22:14:16.253Z,5.50
2023-01-13T22:16:50.622Z,5.60
2023-01-13T22:19:23.779Z,5.60
2023-01-13T22:21:52.089Z,5.70
2023-01-13T22:24:20.372Z,5.60
2023-01-13T22:26:48.118Z,6.00
2023-01-13T22:29:37.640Z,6.00
2023-01-13T22:32:07.732Z,6.00
2023-01-13T22:34:35.374Z,6.10
2023-01-13T22:37:07.099Z,6.20
2023-01-13T22:39:36.545Z,6.10
2023-01-13T22:42:05.723Z,6.20
2023-01-13T22:44:34.080Z,6.30
2023-01-13T22:47:01.710Z,6.30
2023-01-13T22:49:29.219Z,6.50
2023-01-13T22:51:56.794Z,6.60
2023-01-13T22:54:25.579Z,6.70
2023-01-13T22:57:07.659Z,6.80
2023-01-13T22:59:36.062Z,6.80
2023-01-13T23:02:05.821Z,6.90
2023-01-13T23:04:51.335Z,7.00
2023-01-13T23:07:35.590Z,6.90
2023-01-13T23:10:05.097Z,6.80
2023-01-13T23:12:33.520Z,6.50
2023-01-13T23:15:04.591Z,6.30
2023-01-13T23:17:32.505Z,6.30
2023-01-13T23:20:02.502Z,6.00
2023-01-13T23:22:32.848Z,6.00
2023-01-13T23:25:04.272Z,5.80
2023-01-13T23:27:32.678Z,5.90
2023-01-13T23:30:00.834Z,5.70
2023-01-13T23:32:29.877Z,5.80
2023-01-13T23:34:57.737Z,5.60
2023-01-13T23:37:29.655Z,5.70
2023-01-13T23:39:57.131Z,5.60
2023-01-13T23:42:27.755Z,5.50
2023-01-13T23:44:54.792Z,5.50
2023-01-13T23:47:27.871Z,5.40
2023-01-13T23:50:00.244Z,5.40
2023-01-13T23:52:28.072Z,5.40
2023-01-13T23:54:57.404Z,5.50
2023-01-13T23:57:30.050Z,5.40
